Time;durP1;ratioP1;P1;durP2;ratioP2;P2;SDS_P1;SDS_P2;PMS_P1;PMS_P2;Temp;Humidity;BMP_temperature;BMP_pressure;BME280_temperature;BME280_humidity;BME280_pressure;Samples;Min_cycle;Max_cycle;Signal;HPM_P1;HPM_P2
2020/12/18 00:01:30;;;;;;;151.00;44.20;;;;;;;;;;5095095;28;20027;-75
2020/12/18 00:03:56;;;;;;;151.80;44.00;;;;;;;;;;5094093;28;20115;-76
2020/12/18 00:06:23;;;;;;;155.77;42.63;;;;;;;;;;5095312;28;20024;-77
2020/12/18 00:08:49;;;;;;;167.23;45.80;;;;;;;;;;5095064;28;20466;-77
2020/12/18 00:11:22;;;;;;;140.30;44.08;;;;;;;;;;5095144;28;20046;-76
2020/12/18 00:13:49;;;;;;;153.38;44.22;;;;;;;;;;5093549;28;20012;-76
2020/12/18 00:16:15;;;;;;;159.25;41.95;;;;;;;;;;5093811;28;20024;-76
2020/12/18 00:18:41;;;;;;;149.05;43.25;;;;;;;;;;5095086;28;20139;-76
2020/12/18 00:21:07;;;;;;;127.97;39.20;;;;;;;;;;5093223;28;20027;-76
2020/12/18 00:23:34;;;;;;;129.30;37.35;;;;;;;;;;5095242;28;20044;-77
2020/12/18 00:26:00;;;;;;;135.77;42.03;;;;;;;;;;5093748;28;20057;-76
2020/12/18 00:28:26;;;;;;;135.05;40.70;;;;;;;;;;5093357;28;20024;-77
2020/12/18 00:30:52;;;;;;;148.43;44.20;;;;;;;;;;5094025;28;20016;-76
2020/12/18 00:33:18;;;;;;;133.45;37.55;;;;;;;;;;5093605;28;20456;-76
2020/12/18 00:35:44;;;;;;;133.80;39.75;;;;;;;;;;5093428;28;20072;-76
2020/12/18 00:38:10;;;;;;;154.40;39.03;;;;;;;;;;5093339;28;20020;-76
2020/12/18 00:40:37;;;;;;;137.88;39.20;;;;;;;;;;5093703;28;20020;-77
2020/12/18 00:43:03;;;;;;;146.23;39.25;;;;;;;;;;5092003;28;20024;-76
2020/12/18 00:45:29;;;;;;;128.63;37.05;;;;;;;;;;5093728;28;20024;-76
2020/12/18 00:47:55;;;;;;;125.28;37.22;;;;;;;;;;5094630;28;20019;-75
2020/12/18 00:50:21;;;;;;;120.55;38.08;;;;;;;;;;5093048;28;20020;-76
2020/12/18 00:52:47;;;;;;;133.40;37.80;;;;;;;;;;5092916;28;20026;-76
2020/12/18 00:55:14;;;;;;;122.25;37.53;;;;;;;;;;5093325;28;20057;-76
2020/12/18 00:57:40;;;;;;;146.05;40.72;;;;;;;;;;5093075;28;20016;-76
2020/12/18 01:00:06;;;;;;;125.95;40.05;;;;;;;;;;5093095;28;20032;-76
2020/12/18 01:02:32;;;;;;;153.77;38.90;;;;;;;;;;5093477;28;20042;-76
2020/12/18 01:04:59;;;;;;;144.82;39.38;;;;;;;;;;5093309;28;20024;-76
2020/12/18 01:07:25;;;;;;;147.43;39.00;;;;;;;;;;5093065;28;20023;-76
2020/12/18 01:09:51;;;;;;;126.15;36.50;;;;;;;;;;5092490;28;20020;-76
2020/12/18 01:12:17;;;;;;;129.05;38.63;;;;;;;;;;5094179;28;20023;-75
2020/12/18 01:14:43;;;;;;;126.35;37.75;;;;;;;;;;5092836;28;20023;-76
2020/12/18 01:17:09;;;;;;;132.32;39.13;;;;;;;;;;5093759;28;20016;-75
2020/12/18 01:19:38;;;;;;;156.50;41.67;;;;;;;;;;5092364;28;20070;-76
2020/12/18 01:22:04;;;;;;;122.75;35.97;;;;;;;;;;5092665;28;20063;-76
2020/12/18 01:24:30;;;;;;;115.97;35.47;;;;;;;;;;5092925;28;20078;-76
2020/12/18 01:26:57;;;;;;;152.73;39.90;;;;;;;;;;5094324;28;20361;-76
2020/12/18 01:29:23;;;;;;;124.05;39.28;;;;;;;;;;5092733;28;20024;-75
2020/12/18 01:31:49;;;;;;;123.32;37.38;;;;;;;;;;5092456;28;20016;-77
2020/12/18 01:34:15;;;;;;;126.28;38.15;;;;;;;;;;5093226;28;20024;-76
2020/12/18 01:36:41;;;;;;;132.00;42.58;;;;;;;;;;5094565;28;20024;-76
2020/12/18 01:39:07;;;;;;;138.40;45.42;;;;;;;;;;5093332;28;20042;-77
2020/12/18 01:41:33;;;;;;;109.10;36.92;;;;;;;;;;5092143;28;20025;-76
2020/12/18 01:44:00;;;;;;;118.78;35.40;;;;;;;;;;5093903;28;20460;-77
2020/12/18 01:46:27;;;;;;;93.65;31.60;;;;;;;;;;5092297;28;20024;-76
2020/12/18 01:48:53;;;;;;;;;;;;;;;;;;5093098;28;20103;-77
2020/12/18 01:51:19;;;;;;;80.82;28.92;;;;;;;;;;5093142;28;20790;-77
2020/12/18 01:53:46;;;;;;;82.28;28.27;;;;;;;;;;5094314;28;20028;-77
2020/12/18 01:56:12;;;;;;;93.00;30.57;;;;;;;;;;5097699;28;20361;-77
2020/12/18 01:58:39;;;;;;;82.85;29.30;;;;;;;;;;5096304;28;20020;-78
2020/12/18 02:01:06;;;;;;;82.90;30.83;;;;;;;;;;5097946;28;20020;-77
2020/12/18 02:03:32;;;;;;;73.82;25.83;;;;;;;;;;5097237;28;20780;-77
2020/12/18 02:05:59;;;;;;;71.53;27.13;;;;;;;;;;5096160;28;20065;-77
2020/12/18 02:08:29;;;;;;;73.22;26.35;;;;;;;;;;5096845;28;20486;-77
2020/12/18 02:10:58;;;;;;;64.78;26.70;;;;;;;;;;5098062;28;20417;-77
2020/12/18 02:13:25;;;;;;;69.00;24.65;;;;;;;;;;5096150;28;20012;-77
2020/12/18 02:15:55;;;;;;;70.10;26.27;;;;;;;;;;5096344;28;20111;-77
2020/12/18 02:18:21;;;;;;;61.22;25.42;;;;;;;;;;5095967;28;20399;-78
2020/12/18 02:20:48;;;;;;;58.63;24.43;;;;;;;;;;5095919;28;20081;-77
2020/12/18 02:23:14;;;;;;;65.93;26.65;;;;;;;;;;5095864;28;20269;-79
2020/12/18 02:25:41;;;;;;;63.95;25.83;;;;;;;;;;5097406;28;20027;-78
2020/12/18 02:28:11;;;;;;;72.43;29.88;;;;;;;;;;5104159;28;20026;-81
2020/12/18 02:30:38;;;;;;;63.63;24.88;;;;;;;;;;5104783;28;20023;-75
2020/12/18 02:33:07;;;;;;;71.00;28.58;;;;;;;;;;5096950;28;20024;-73
2020/12/18 02:35:34;;;;;;;71.03;27.50;;;;;;;;;;5095613;28;20020;-73
2020/12/18 02:38:00;;;;;;;67.15;28.92;;;;;;;;;;5096405;28;20042;-73
2020/12/18 02:40:27;;;;;;;66.05;30.58;;;;;;;;;;5095823;28;20028;-73
2020/12/18 02:42:53;;;;;;;59.38;28.42;;;;;;;;;;5095662;28;20452;-73
2020/12/18 02:45:19;;;;;;;58.50;25.55;;;;;;;;;;5095341;28;20024;-73
2020/12/18 02:47:45;;;;;;;53.85;26.67;;;;;;;;;;5095143;28;20024;-75
2020/12/18 02:50:11;;;;;;;58.95;26.77;;;;;;;;;;5096006;28;20017;-76
2020/12/18 02:52:38;;;;;;;64.00;25.92;;;;;;;;;;5095368;28;20107;-76
2020/12/18 02:55:04;;;;;;;71.93;28.45;;;;;;;;;;5095717;28;20016;-78
2020/12/18 02:57:30;;;;;;;60.78;26.15;;;;;;;;;;5095394;28;20016;-75
2020/12/18 02:59:57;;;;;;;78.28;33.45;;;;;;;;;;5094863;28;20111;-76
2020/12/18 03:02:23;;;;;;;78.35;32.40;;;;;;;;;;5091714;28;20067;-75
2020/12/18 03:04:49;;;;;;;64.63;28.83;;;;;;;;;;5074146;28;20461;-76
2020/12/18 03:07:15;;;;;;;54.50;26.65;;;;;;;;;;5076677;28;20476;-77
2020/12/18 03:09:41;;;;;;;62.35;28.02;;;;;;;;;;5074970;28;20457;-78
2020/12/18 03:12:07;;;;;;;66.00;28.88;;;;;;;;;;5078118;28;20028;-75
2020/12/18 03:14:33;;;;;;;63.08;27.35;;;;;;;;;;5095116;28;20099;-75
2020/12/18 03:17:00;;;;;;;65.88;27.83;;;;;;;;;;5094943;28;20016;-76
2020/12/18 03:19:26;;;;;;;60.83;28.08;;;;;;;;;;5094897;28;20101;-76
2020/12/18 03:21:52;;;;;;;69.35;30.00;;;;;;;;;;5095908;28;20043;-78
2020/12/18 03:24:18;;;;;;;73.38;30.25;;;;;;;;;;5095437;28;20066;-76
2020/12/18 03:26:44;;;;;;;69.32;29.17;;;;;;;;;;5095344;28;20012;-75
2020/12/18 03:29:10;;;;;;;59.95;27.85;;;;;;;;;;5094227;28;20073;-75
2020/12/18 03:31:36;;;;;;;64.90;27.38;;;;;;;;;;5094800;28;20044;-74
2020/12/18 03:34:03;;;;;;;60.97;29.08;;;;;;;;;;5095456;28;20078;-75
2020/12/18 03:36:29;;;;;;;69.47;28.90;;;;;;;;;;5094407;28;20020;-75
2020/12/18 03:38:55;;;;;;;66.43;28.90;;;;;;;;;;5094513;28;20031;-75
2020/12/18 03:41:21;;;;;;;58.10;27.48;;;;;;;;;;5093991;28;20020;-73
2020/12/18 03:43:47;;;;;;;56.60;25.83;;;;;;;;;;5094299;28;20498;-73
2020/12/18 03:46:15;;;;;;;65.00;26.75;;;;;;;;;;5095507;28;20023;-75
2020/12/18 03:48:41;;;;;;;60.40;26.92;;;;;;;;;;5094388;28;20052;-76
2020/12/18 03:51:07;;;;;;;64.38;25.73;;;;;;;;;;5095812;28;20020;-77
2020/12/18 03:53:33;;;;;;;56.75;26.80;;;;;;;;;;5094375;28;20021;-74
2020/12/18 03:56:00;;;;;;;61.38;26.58;;;;;;;;;;5094300;28;20043;-75
2020/12/18 03:58:26;;;;;;;64.13;27.67;;;;;;;;;;5093585;28;20031;-75
2020/12/18 04:00:52;;;;;;;60.95;25.48;;;;;;;;;;5094154;28;20032;-73
2020/12/18 04:03:18;;;;;;;60.00;25.13;;;;;;;;;;5095509;28;20081;-74
2020/12/18 04:05:44;;;;;;;64.38;27.92;;;;;;;;;;5094735;28;20043;-75
2020/12/18 04:08:10;;;;;;;64.57;28.25;;;;;;;;;;5094009;28;20024;-75
2020/12/18 04:10:36;;;;;;;65.47;28.83;;;;;;;;;;5094014;28;20020;-74
2020/12/18 04:13:02;;;;;;;66.32;27.80;;;;;;;;;;5094818;28;20082;-75
2020/12/18 04:15:28;;;;;;;65.38;27.60;;;;;;;;;;5093630;28;20020;-75
2020/12/18 04:17:54;;;;;;;66.75;28.63;;;;;;;;;;5093480;28;20024;-75
2020/12/18 04:20:21;;;;;;;65.07;27.17;;;;;;;;;;5093505;28;20024;-73
2020/12/18 04:22:47;;;;;;;65.25;26.50;;;;;;;;;;5093831;28;20048;-74
2020/12/18 04:25:13;;;;;;;70.20;31.02;;;;;;;;;;5093560;28;20538;-74
2020/12/18 04:27:39;;;;;;;74.28;31.20;;;;;;;;;;5093627;28;20077;-74
2020/12/18 04:30:06;;;;;;;61.28;27.17;;;;;;;;;;5093752;28;20031;-74
2020/12/18 04:32:32;;;;;;;65.18;28.98;;;;;;;;;;5093057;28;20031;-75
2020/12/18 04:34:59;;;;;;;66.20;25.77;;;;;;;;;;5094830;28;20020;-75
2020/12/18 04:37:25;;;;;;;68.82;27.70;;;;;;;;;;5093215;28;20024;-75
2020/12/18 04:39:51;;;;;;;74.78;38.00;;;;;;;;;;5093370;28;20039;-74
2020/12/18 04:42:19;;;;;;;72.38;31.48;;;;;;;;;;5095107;28;20073;-75
2020/12/18 04:44:45;;;;;;;61.88;28.52;;;;;;;;;;5093514;28;20097;-74
2020/12/18 04:47:13;;;;;;;70.97;29.83;;;;;;;;;;5094308;28;20016;-75
2020/12/18 04:49:41;;;;;;;74.07;31.90;;;;;;;;;;5093005;28;20364;-75
2020/12/18 04:52:09;;;;;;;75.38;33.03;;;;;;;;;;5093739;28;20046;-75
2020/12/18 04:54:36;;;;;;;71.18;31.60;;;;;;;;;;5094411;28;20026;-76
2020/12/18 04:57:04;;;;;;;67.95;31.02;;;;;;;;;;5093536;28;20341;-75
2020/12/18 04:59:37;;;;;;;79.75;34.45;;;;;;;;;;5093569;28;20356;-77
2020/12/18 05:02:03;;;;;;;74.70;34.15;;;;;;;;;;5091756;28;20016;-74
2020/12/18 05:04:29;;;;;;;70.47;31.08;;;;;;;;;;5091283;28;20012;-74
2020/12/18 05:06:56;;;;;;;62.83;30.30;;;;;;;;;;5091162;28;20020;-74
2020/12/18 05:09:25;;;;;;;84.00;37.17;;;;;;;;;;5090975;28;20073;-73
2020/12/18 05:11:52;;;;;;;96.38;45.20;;;;;;;;;;5092565;28;20012;-75
2020/12/18 05:14:18;;;;;;;90.95;46.10;;;;;;;;;;5091755;28;20027;-74
2020/12/18 05:16:47;;;;;;;90.95;49.42;;;;;;;;;;5090876;28;20029;-74
2020/12/18 05:19:13;;;;;;;78.40;37.75;;;;;;;;;;5093239;28;20046;-74
2020/12/18 05:21:40;;;;;;;69.90;38.50;;;;;;;;;;5093595;28;20368;-75
2020/12/18 05:24:06;;;;;;;70.60;36.38;;;;;;;;;;5092462;28;20054;-76
2020/12/18 05:26:32;;;;;;;55.60;28.02;;;;;;;;;;5092867;28;20020;-75
2020/12/18 05:29:06;;;;;;;60.35;29.17;;;;;;;;;;5092047;28;20039;-75
2020/12/18 05:31:32;;;;;;;56.75;29.23;;;;;;;;;;5094597;28;20016;-75
2020/12/18 05:34:00;;;;;;;65.45;30.25;;;;;;;;;;5092401;28;20012;-75
2020/12/18 05:36:25;;;;;;;;;;;;;;;;;;5093256;28;20024;-75
2020/12/18 05:38:52;;;;;;;64.65;32.45;;;;;;;;;;5092890;28;20260;-74
2020/12/18 05:41:21;;;;;;;65.35;31.65;;;;;;;;;;5092673;28;20028;-74
2020/12/18 05:43:47;;;;;;;55.60;28.35;;;;;;;;;;5093539;28;20016;-74
2020/12/18 05:46:23;;;;;;;49.97;26.70;;;;;;;;;;5092131;28;20142;-76
2020/12/18 05:49:02;;;;;;;55.00;29.58;;;;;;;;;;5092686;28;20032;-75
2020/12/18 05:51:36;;;;;;;70.25;32.95;;;;;;;;;;5094494;28;20012;-76
2020/12/18 05:54:18;;;;;;;69.97;33.55;;;;;;;;;;5092586;28;20024;-78
2020/12/18 05:56:45;;;;;;;57.85;30.33;;;;;;;;;;5092311;28;20020;-77
2020/12/18 05:59:12;;;;;;;83.72;44.45;;;;;;;;;;5092384;28;20499;-76
2020/12/18 06:01:39;;;;;;;96.25;51.78;;;;;;;;;;5093826;28;20364;-76
2020/12/18 06:04:24;;;;;;;59.42;30.52;;;;;;;;;;5092203;28;20346;-76
2020/12/18 06:06:51;;;;;;;67.22;36.17;;;;;;;;;;5093803;28;20023;-76
2020/12/18 06:09:19;;;;;;;59.20;30.88;;;;;;;;;;5092345;28;20433;-76
2020/12/18 06:11:45;;;;;;;;;;;;;;;;;;5093673;28;20028;-76
2020/12/18 06:14:12;;;;;;;61.75;29.85;;;;;;;;;;5092376;28;19900;-76
2020/12/18 06:16:38;;;;;;;;;;;;;;;;;;5094391;28;20040;-76
2020/12/18 06:19:05;;;;;;;71.05;32.30;;;;;;;;;;5092008;28;19961;-76
2020/12/18 06:21:32;;;;;;;62.05;31.67;;;;;;;;;;5092339;28;20533;-76
2020/12/18 06:23:58;;;;;;;60.65;28.40;;;;;;;;;;5091641;28;20512;-76
2020/12/18 06:26:25;;;;;;;57.65;28.73;;;;;;;;;;5092315;28;20016;-76
2020/12/18 06:28:51;;;;;;;92.07;58.90;;;;;;;;;;5093557;28;20042;-76
2020/12/18 06:31:28;;;;;;;79.32;54.90;;;;;;;;;;5093248;28;20031;-75
2020/12/18 06:33:55;;;;;;;70.20;38.53;;;;;;;;;;5092276;28;20020;-75
2020/12/18 06:36:39;;;;;;;61.47;33.17;;;;;;;;;;5093460;28;20052;-75
2020/12/18 06:39:19;;;;;;;74.95;35.22;;;;;;;;;;5091397;28;20092;-77
2020/12/18 06:41:46;;;;;;;70.05;34.83;;;;;;;;;;5075660;28;20056;-77
2020/12/18 06:44:44;;;;;;;83.20;38.80;;;;;;;;;;5075220;28;20028;-77
2020/12/18 06:47:15;;;;;;;65.15;32.85;;;;;;;;;;5086327;28;20056;-77
2020/12/18 06:49:56;;;;;;;87.78;38.15;;;;;;;;;;5095666;28;20028;-77
2020/12/18 06:52:41;;;;;;;111.43;44.72;;;;;;;;;;5095511;28;20019;-78
2020/12/18 06:55:08;;;;;;;101.57;43.28;;;;;;;;;;5097508;28;20468;-76
2020/12/18 06:57:34;;;;;;;87.70;41.63;;;;;;;;;;5099049;28;20018;-76
2020/12/18 07:00:19;;;;;;;85.97;39.40;;;;;;;;;;5098531;28;20028;-77
2020/12/18 07:02:45;;;;;;;118.85;51.92;;;;;;;;;;5096753;28;20020;-73
2020/12/18 07:05:30;;;;;;;144.82;60.78;;;;;;;;;;5095159;28;20106;-74
2020/12/18 07:07:58;;;;;;;150.70;62.67;;;;;;;;;;5095263;28;20525;-75
2020/12/18 07:10:42;;;;;;;159.07;67.45;;;;;;;;;;5096223;28;20326;-77
2020/12/18 07:13:16;;;;;;;183.20;78.97;;;;;;;;;;5095628;28;20112;-76
2020/12/18 07:15:45;;;;;;;144.32;62.00;;;;;;;;;;5095298;28;20020;-75
2020/12/18 07:18:14;;;;;;;104.70;49.15;;;;;;;;;;5094557;28;20368;-75
2020/12/18 07:20:48;;;;;;;95.55;43.80;;;;;;;;;;5096861;28;20495;-77
2020/12/18 07:23:14;;;;;;;91.32;45.22;;;;;;;;;;5096140;28;20096;-78
2020/12/18 07:25:40;;;;;;;86.68;41.95;;;;;;;;;;5095153;28;20465;-75
2020/12/18 07:28:06;;;;;;;87.03;42.25;;;;;;;;;;5095423;28;20038;-73
2020/12/18 07:30:37;;;;;;;87.90;42.88;;;;;;;;;;5094773;28;20020;-74
2020/12/18 07:33:03;;;;;;;94.28;47.03;;;;;;;;;;5097042;28;20024;-78
2020/12/18 07:35:29;;;;;;;81.25;41.58;;;;;;;;;;5098555;28;20150;-79
2020/12/18 07:37:55;;;;;;;74.03;41.40;;;;;;;;;;5097084;28;20030;-77
2020/12/18 07:40:21;;;;;;;71.50;34.40;;;;;;;;;;5094926;28;20035;-78
2020/12/18 07:42:47;;;;;;;79.05;40.58;;;;;;;;;;5097246;28;20027;-77
2020/12/18 07:45:13;;;;;;;75.78;39.47;;;;;;;;;;5095937;28;20020;-78
2020/12/18 07:47:40;;;;;;;57.13;30.98;;;;;;;;;;5097551;28;20040;-79
2020/12/18 07:50:07;;;;;;;51.88;29.55;;;;;;;;;;5100488;28;20016;-78
2020/12/18 07:52:36;;;;;;;60.17;30.42;;;;;;;;;;5097017;28;20020;-79
2020/12/18 07:55:03;;;;;;;70.18;35.72;;;;;;;;;;5098673;28;20021;-76
2020/12/18 07:57:30;;;;;;;60.13;32.40;;;;;;;;;;5094397;28;20081;-74
2020/12/18 08:00:09;;;;;;;60.40;33.15;;;;;;;;;;5095145;28;20024;-74
2020/12/18 08:02:35;;;;;;;56.75;32.85;;;;;;;;;;5094970;28;20460;-74
2020/12/18 08:05:01;;;;;;;53.28;29.83;;;;;;;;;;5094081;28;20020;-73
2020/12/18 08:07:29;;;;;;;66.70;31.50;;;;;;;;;;5093795;28;20353;-73
2020/12/18 08:09:55;;;;;;;;;;;;;;;;;;5094221;28;20012;-75
2020/12/18 08:12:21;;;;;;;76.07;35.60;;;;;;;;;;5093971;28;19906;-74
2020/12/18 08:14:47;;;;;;;78.75;37.72;;;;;;;;;;5093640;28;20012;-74
2020/12/18 08:17:22;;;;;;;88.15;41.10;;;;;;;;;;5094851;28;20074;-74
2020/12/18 08:19:54;;;;;;;48.15;25.67;;;;;;;;;;5093512;28;20028;-73
2020/12/18 08:22:21;;;;;;;58.13;29.70;;;;;;;;;;5093916;28;20048;-74
2020/12/18 08:24:48;;;;;;;64.95;31.85;;;;;;;;;;5093726;28;20016;-76
2020/12/18 08:27:22;;;;;;;67.25;35.75;;;;;;;;;;5093823;28;20021;-75
2020/12/18 08:29:48;;;;;;;66.00;36.33;;;;;;;;;;5096056;28;20016;-77
2020/12/18 08:32:34;;;;;;;60.15;32.35;;;;;;;;;;5094042;28;20024;-77
2020/12/18 08:35:05;;;;;;;57.05;30.85;;;;;;;;;;5109919;28;20103;-79
2020/12/18 08:37:31;;;;;;;54.25;29.55;;;;;;;;;;5094013;28;20046;-75
2020/12/18 08:39:57;;;;;;;51.83;28.27;;;;;;;;;;5093592;28;20020;-77
2020/12/18 08:42:24;;;;;;;52.88;29.88;;;;;;;;;;5093470;28;20020;-76
2020/12/18 08:44:50;;;;;;;82.80;44.03;;;;;;;;;;5094798;28;20058;-76
2020/12/18 08:47:26;;;;;;;76.75;44.10;;;;;;;;;;5093316;28;20020;-75
2020/12/18 08:49:56;;;;;;;72.80;39.50;;;;;;;;;;5092844;28;20107;-77
2020/12/18 08:52:26;;;;;;;57.92;32.97;;;;;;;;;;5085407;28;20013;-76
2020/12/18 08:55:02;;;;;;;54.58;29.95;;;;;;;;;;5092002;28;20020;-76
2020/12/18 08:57:29;;;;;;;51.92;27.98;;;;;;;;;;5094313;28;20032;-75
2020/12/18 08:59:55;;;;;;;48.93;27.13;;;;;;;;;;5072797;28;20078;-75
2020/12/18 09:02:21;;;;;;;53.05;30.33;;;;;;;;;;5072476;28;20261;-75
2020/12/18 09:04:48;;;;;;;60.03;28.48;;;;;;;;;;5072611;28;20020;-75
2020/12/18 09:07:14;;;;;;;58.28;33.08;;;;;;;;;;5074005;28;20017;-75
2020/12/18 09:09:53;;;;;;;57.95;31.58;;;;;;;;;;5084559;28;20024;-75
2020/12/18 09:12:20;;;;;;;54.45;29.40;;;;;;;;;;5092791;28;20020;-77
2020/12/18 09:14:46;;;;;;;59.67;30.48;;;;;;;;;;5092840;28;20059;-78
2020/12/18 09:17:16;;;;;;;51.00;25.65;;;;;;;;;;5093116;28;20116;-77
2020/12/18 09:19:46;;;;;;;45.17;25.38;;;;;;;;;;5092878;28;20024;-78
2020/12/18 09:22:13;;;;;;;50.63;27.90;;;;;;;;;;5093630;28;20040;-76
2020/12/18 09:24:39;;;;;;;54.50;31.70;;;;;;;;;;5092641;28;20016;-77
2020/12/18 09:27:12;;;;;;;59.88;29.27;;;;;;;;;;5092843;28;20552;-74
2020/12/18 09:29:38;;;;;;;51.10;28.42;;;;;;;;;;5092427;28;20035;-76
2020/12/18 09:32:10;;;;;;;52.78;28.98;;;;;;;;;;5091355;28;20028;-73
2020/12/18 09:34:36;;;;;;;51.95;28.38;;;;;;;;;;5090698;28;20020;-72
2020/12/18 09:37:12;;;;;;;49.08;29.05;;;;;;;;;;5091117;28;20476;-72
2020/12/18 09:39:39;;;;;;;53.15;27.88;;;;;;;;;;5092192;28;20031;-73
2020/12/18 09:42:05;;;;;;;;;;;;;;;;;;5092936;28;20039;-73
2020/12/18 09:44:31;;;;;;;55.65;26.33;;;;;;;;;;5091091;28;20264;-74
2020/12/18 09:46:58;;;;;;;62.63;36.00;;;;;;;;;;5092428;28;20051;-74
2020/12/18 09:49:26;;;;;;;62.67;32.38;;;;;;;;;;5092439;28;20012;-72
2020/12/18 09:51:58;;;;;;;53.65;29.17;;;;;;;;;;5090867;28;20012;-75
2020/12/18 09:54:24;;;;;;;60.88;30.13;;;;;;;;;;5091138;28;20020;-73
2020/12/18 09:56:53;;;;;;;53.90;30.05;;;;;;;;;;5092128;28;20016;-74
2020/12/18 09:59:19;;;;;;;56.28;30.13;;;;;;;;;;5091236;28;20028;-75
2020/12/18 10:01:45;;;;;;;58.72;32.17;;;;;;;;;;5092109;28;20016;-74
2020/12/18 10:04:11;;;;;;;125.32;54.92;;;;;;;;;;5091771;28;20024;-72
2020/12/18 10:06:39;;;;;;;142.23;61.80;;;;;;;;;;5093307;28;20159;-74
2020/12/18 10:09:05;;;;;;;109.07;55.00;;;;;;;;;;5093569;28;20043;-74
2020/12/18 10:11:31;;;;;;;98.85;52.30;;;;;;;;;;5091937;28;20016;-74
2020/12/18 10:13:58;;;;;;;86.07;45.47;;;;;;;;;;5092499;28;20023;-76
2020/12/18 10:16:24;;;;;;;65.07;33.85;;;;;;;;;;5095528;28;20027;-73
2020/12/18 10:18:50;;;;;;;68.65;31.35;;;;;;;;;;5096557;28;20810;-73
2020/12/18 10:21:16;;;;;;;48.75;25.88;;;;;;;;;;5095850;28;20032;-73
2020/12/18 10:23:42;;;;;;;59.90;29.92;;;;;;;;;;5096860;28;20047;-74
2020/12/18 10:26:08;;;;;;;48.60;25.63;;;;;;;;;;5095644;28;20016;-75
2020/12/18 10:28:34;;;;;;;61.65;28.40;;;;;;;;;;5095936;28;20453;-74
2020/12/18 10:31:01;;;;;;;50.38;26.05;;;;;;;;;;5096639;28;20020;-73
2020/12/18 10:33:27;;;;;;;52.00;26.13;;;;;;;;;;5096786;28;20026;-75
2020/12/18 10:35:54;;;;;;;51.65;25.65;;;;;;;;;;5095791;28;20042;-73
2020/12/18 10:38:24;;;;;;;56.37;27.63;;;;;;;;;;5095926;28;20085;-73
2020/12/18 10:40:50;;;;;;;59.40;26.92;;;;;;;;;;5095375;28;20019;-73
2020/12/18 10:43:16;;;;;;;62.47;30.65;;;;;;;;;;5095563;28;20501;-75
2020/12/18 10:45:43;;;;;;;55.72;28.08;;;;;;;;;;5095534;28;20027;-73
2020/12/18 10:48:09;;;;;;;55.40;26.40;;;;;;;;;;5095227;28;20031;-74
2020/12/18 10:50:35;;;;;;;55.75;27.15;;;;;;;;;;5095837;28;20065;-75
2020/12/18 10:53:03;;;;;;;55.88;27.45;;;;;;;;;;5094985;28;20016;-76
2020/12/18 10:55:29;;;;;;;60.88;28.67;;;;;;;;;;5096189;28;20561;-76
2020/12/18 10:57:55;;;;;;;59.28;30.55;;;;;;;;;;5095170;28;20042;-77
2020/12/18 11:00:21;;;;;;;52.25;28.33;;;;;;;;;;5095746;28;20352;-73
2020/12/18 11:02:47;;;;;;;58.92;25.77;;;;;;;;;;5094954;28;20012;-76
2020/12/18 11:05:14;;;;;;;57.28;28.00;;;;;;;;;;5095059;28;20015;-76
2020/12/18 11:07:40;;;;;;;61.08;30.30;;;;;;;;;;5094643;28;20024;-76
2020/12/18 11:10:06;;;;;;;67.18;30.52;;;;;;;;;;5094917;28;20119;-76
2020/12/18 11:12:32;;;;;;;57.90;29.77;;;;;;;;;;5096075;28;20019;-73
2020/12/18 11:14:58;;;;;;;64.05;30.95;;;;;;;;;;5094600;28;20026;-74
2020/12/18 11:17:25;;;;;;;67.95;30.38;;;;;;;;;;5095108;28;20016;-75
2020/12/18 11:19:51;;;;;;;63.38;30.15;;;;;;;;;;5095052;28;20540;-75
2020/12/18 11:22:17;;;;;;;61.30;29.33;;;;;;;;;;5094485;28;20046;-72
2020/12/18 11:24:44;;;;;;;59.47;29.80;;;;;;;;;;5095069;28;20411;-73
2020/12/18 11:27:11;;;;;;;58.88;26.45;;;;;;;;;;5093906;28;20118;-77
2020/12/18 11:29:37;;;;;;;49.87;24.77;;;;;;;;;;5094593;28;20028;-75
2020/12/18 11:32:03;;;;;;;56.60;25.60;;;;;;;;;;5094862;28;20027;-71
2020/12/18 11:34:29;;;;;;;70.53;34.65;;;;;;;;;;5094284;28;20023;-77
2020/12/18 11:36:56;;;;;;;88.50;38.75;;;;;;;;;;5094926;28;20368;-75
2020/12/18 11:39:22;;;;;;;134.02;54.03;;;;;;;;;;5094775;28;20093;-74
2020/12/18 11:41:53;;;;;;;140.32;56.97;;;;;;;;;;5093341;28;20020;-76
2020/12/18 11:44:19;;;;;;;124.40;55.28;;;;;;;;;;5090318;28;20437;-74
2020/12/18 11:46:50;;;;;;;99.88;47.78;;;;;;;;;;5094111;28;20016;-76
2020/12/18 11:49:16;;;;;;;88.43;42.05;;;;;;;;;;5075154;28;20025;-76
2020/12/18 11:51:42;;;;;;;81.63;40.17;;;;;;;;;;5073959;28;20044;-75
2020/12/18 11:54:09;;;;;;;75.63;35.80;;;;;;;;;;5087822;28;20073;-78
2020/12/18 11:56:35;;;;;;;71.95;35.25;;;;;;;;;;5095665;28;20407;-76
2020/12/18 11:59:01;;;;;;;73.20;34.63;;;;;;;;;;5095972;28;20024;-76
2020/12/18 12:01:28;;;;;;;68.25;35.05;;;;;;;;;;5096416;28;20117;-76
2020/12/18 12:03:54;;;;;;;;;;;;;;;;;;5094615;28;20455;-78
2020/12/18 12:06:21;;;;;;;62.92;29.20;;;;;;;;;;5094768;28;19907;-74
2020/12/18 12:08:47;;;;;;;51.25;25.92;;;;;;;;;;5094002;28;20119;-75
2020/12/18 12:11:15;;;;;;;49.17;23.57;;;;;;;;;;5093701;28;20020;-74
2020/12/18 12:13:42;;;;;;;58.15;27.20;;;;;;;;;;5084744;28;20272;-73
2020/12/18 12:16:08;;;;;;;55.17;24.83;;;;;;;;;;5093364;28;20016;-72
2020/12/18 12:18:34;;;;;;;50.03;24.50;;;;;;;;;;5092366;28;20035;-74
2020/12/18 12:21:00;;;;;;;57.30;28.00;;;;;;;;;;5092863;28;20101;-76
2020/12/18 12:23:26;;;;;;;65.18;28.40;;;;;;;;;;5091190;28;20044;-74
2020/12/18 12:25:52;;;;;;;60.83;29.52;;;;;;;;;;5091972;28;20461;-75
2020/12/18 12:28:18;;;;;;;58.63;27.55;;;;;;;;;;5092030;28;20024;-73
2020/12/18 12:30:44;;;;;;;55.10;27.40;;;;;;;;;;5092570;28;20042;-75
2020/12/18 12:33:11;;;;;;;56.25;27.92;;;;;;;;;;5092049;28;20346;-74
2020/12/18 12:35:37;;;;;;;48.90;25.42;;;;;;;;;;5092511;28;20013;-73
2020/12/18 12:38:06;;;;;;;45.75;23.70;;;;;;;;;;5092056;28;20052;-74
2020/12/18 12:40:33;;;;;;;44.97;23.40;;;;;;;;;;5092911;28;20403;-74
2020/12/18 12:42:59;;;;;;;49.95;24.58;;;;;;;;;;5091889;28;20143;-78
2020/12/18 12:45:25;;;;;;;49.22;23.27;;;;;;;;;;5091813;28;20020;-73
2020/12/18 12:47:51;;;;;;;52.38;25.00;;;;;;;;;;5092362;28;20043;-72
2020/12/18 12:50:17;;;;;;;43.88;24.88;;;;;;;;;;5094231;28;20065;-74
2020/12/18 12:52:43;;;;;;;47.83;24.40;;;;;;;;;;5092825;28;20027;-72
2020/12/18 12:55:09;;;;;;;51.25;26.13;;;;;;;;;;5093530;28;20043;-74
2020/12/18 12:57:36;;;;;;;50.30;26.95;;;;;;;;;;5094354;28;20023;-74
2020/12/18 13:00:03;;;;;;;59.75;28.08;;;;;;;;;;5092531;28;20724;-73
2020/12/18 13:02:29;;;;;;;68.10;32.05;;;;;;;;;;5074075;28;20071;-74
2020/12/18 13:04:55;;;;;;;69.93;34.80;;;;;;;;;;5088497;28;20503;-72
2020/12/18 13:07:21;;;;;;;70.90;36.00;;;;;;;;;;5092554;28;20043;-75
2020/12/18 13:09:47;;;;;;;54.08;29.17;;;;;;;;;;5093183;28;20453;-74
2020/12/18 13:12:14;;;;;;;54.40;26.55;;;;;;;;;;5093007;28;20028;-74
2020/12/18 13:14:40;;;;;;;58.40;29.38;;;;;;;;;;5093766;28;20016;-74
2020/12/18 13:17:06;;;;;;;65.03;33.28;;;;;;;;;;5092242;28;20027;-75
2020/12/18 13:19:32;;;;;;;64.95;33.17;;;;;;;;;;5094241;28;20475;-72
2020/12/18 13:21:58;;;;;;;62.45;31.13;;;;;;;;;;5092185;28;20032;-71
2020/12/18 13:24:24;;;;;;;60.60;29.35;;;;;;;;;;5094287;28;20020;-76
2020/12/18 13:26:54;;;;;;;53.40;26.60;;;;;;;;;;5092753;28;20056;-76
2020/12/18 13:29:20;;;;;;;57.65;30.65;;;;;;;;;;5093624;28;20411;-76
2020/12/18 13:31:46;;;;;;;54.53;24.83;;;;;;;;;;5092431;28;20345;-75
2020/12/18 13:34:12;;;;;;;40.40;21.65;;;;;;;;;;5092944;28;20022;-77
2020/12/18 13:36:39;;;;;;;43.70;24.30;;;;;;;;;;5092445;28;20015;-77
2020/12/18 13:39:05;;;;;;;56.15;26.73;;;;;;;;;;5093006;28;20372;-78
2020/12/18 13:41:31;;;;;;;52.72;27.90;;;;;;;;;;5092145;28;20027;-74
2020/12/18 13:43:57;;;;;;;65.03;31.80;;;;;;;;;;5092400;28;20103;-73
2020/12/18 13:46:23;;;;;;;67.18;34.17;;;;;;;;;;5092495;28;20016;-74
2020/12/18 13:48:49;;;;;;;69.72;36.90;;;;;;;;;;5092435;28;20016;-75
2020/12/18 13:51:15;;;;;;;70.65;37.00;;;;;;;;;;5097919;28;20058;-78
2020/12/18 13:53:41;;;;;;;64.03;30.98;;;;;;;;;;5095753;28;20065;-76
2020/12/18 13:56:07;;;;;;;62.95;31.70;;;;;;;;;;5094419;28;20102;-73
2020/12/18 13:58:34;;;;;;;65.15;30.42;;;;;;;;;;5094618;28;20028;-72
2020/12/18 14:01:00;;;;;;;69.93;36.13;;;;;;;;;;5094368;28;20031;-75
2020/12/18 14:03:26;;;;;;;70.32;34.75;;;;;;;;;;5094442;28;20048;-78
2020/12/18 14:05:52;;;;;;;76.13;36.95;;;;;;;;;;5096196;28;20419;-77
2020/12/18 14:08:18;;;;;;;71.88;35.60;;;;;;;;;;5093892;28;20028;-76
2020/12/18 14:10:48;;;;;;;86.95;40.25;;;;;;;;;;5110057;28;20074;-80
2020/12/18 14:13:14;;;;;;;100.40;45.15;;;;;;;;;;5091837;28;20028;-74
2020/12/18 14:15:44;;;;;;;103.38;48.00;;;;;;;;;;5094473;28;20032;-77
2020/12/18 14:18:14;;;;;;;103.25;47.42;;;;;;;;;;5094497;28;20020;-74